Homeworth, Ohio
Current Conditions -  °F | °C
As of 8:51 PM on Friday 19 Dec 2014 (Local Time) from KCAK Reporting Station
Overcast Overcast  
Wind Chill: 24°   Ceiling: 1900
Heat Index: 29°   Visibility: 10mi
Dew Point: 22°   Wind: 5mph
Humidity: 75%   Direction: 300°WNW
Pressure: 30.28"   Gusts: NA
Location:  40.84°N, 81.07°W
Report Text: KCAK 200151Z 30004KT 10SM OVC019 M02/M06 A3028 RMK AO2 SLP268 T10171056
Loading
Personal Weather Stations






























Interactive Weather Map New forecast layout! Learn more

10-Day Weather Forecast

Advertisements
Track Severe Weather on mobile